sensor_id;sensor_type;location;lat;lon;timestamp;temperature;humidity
14473;DHT22;7322;50.872;4.386;2024-01-06T20:54:33;18.10;99.90
14473;DHT22;7322;50.872;4.386;2024-01-06T20:57:10;18.20;99.90
14473;DHT22;7322;50.872;4.386;2024-01-06T20:59:58;18.00;99.90
14473;DHT22;7322;50.872;4.386;2024-01-06T21:02:33;17.90;99.90
14473;DHT22;7322;50.872;4.386;2024-01-06T21:05:09;18.00;99.90
14473;DHT22;7322;50.872;4.386;2024-01-06T21:07:51;18.10;99.90
14473;DHT22;7322;50.872;4.386;2024-01-06T21:10:26;18.20;99.90
14473;DHT22;7322;50.872;4.386;2024-01-06T21:26:29;18.40;99.90
14473;DHT22;7322;50.872;4.386;2024-01-06T21:29:18;18.40;99.90
14473;DHT22;7322;50.872;4.386;2024-01-06T21:31:58;18.50;99.90
14473;DHT22;7322;50.872;4.386;2024-01-06T21:35:10;18.40;99.90
14473;DHT22;7322;50.872;4.386;2024-01-06T21:38:07;18.40;99.90
14473;DHT22;7322;50.872;4.386;2024-01-06T21:40:42;18.40;99.90
14473;DHT22;7322;50.872;4.386;2024-01-06T21:43:15;18.30;99.90
14473;DHT22;7322;50.872;4.386;2024-01-06T21:46:01;18.30;99.90
14473;DHT22;7322;50.872;4.386;2024-01-06T21:48:35;18.30;99.90
14473;DHT22;7322;50.872;4.386;2024-01-06T21:51:06;18.20;99.90
14473;DHT22;7322;50.872;4.386;2024-01-06T21:53:37;18.30;99.90
14473;DHT22;7322;50.872;4.386;2024-01-06T21:56:05;18.30;99.90
14473;DHT22;7322;50.872;4.386;2024-01-06T21:58:36;18.20;99.90
14473;DHT22;7322;50.872;4.386;2024-01-06T22:01:10;18.30;99.90
14473;DHT22;7322;50.872;4.386;2024-01-06T22:03:42;18.30;99.90
14473;DHT22;7322;50.872;4.386;2024-01-06T22:06:15;18.20;99.90
14473;DHT22;7322;50.872;4.386;2024-01-06T22:08:44;18.20;99.90
14473;DHT22;7322;50.872;4.386;2024-01-06T22:11:13;18.20;99.90
14473;DHT22;7322;50.872;4.386;2024-01-06T22:13:43;18.20;99.90
14473;DHT22;7322;50.872;4.386;2024-01-06T22:16:22;18.20;99.90
14473;DHT22;7322;50.872;4.386;2024-01-06T22:18:52;18.30;99.90
14473;DHT22;7322;50.872;4.386;2024-01-06T22:21:21;18.30;99.90
14473;DHT22;7322;50.872;4.386;2024-01-06T22:23:50;18.40;99.90
14473;DHT22;7322;50.872;4.386;2024-01-06T22:26:21;18.40;99.90
14473;DHT22;7322;50.872;4.386;2024-01-06T22:28:59;18.40;99.90
14473;DHT22;7322;50.872;4.386;2024-01-06T22:31:42;18.40;99.90
14473;DHT22;7322;50.872;4.386;2024-01-06T22:34:19;18.40;99.90
14473;DHT22;7322;50.872;4.386;2024-01-06T22:36:56;18.40;99.90
14473;DHT22;7322;50.872;4.386;2024-01-06T22:39:30;18.40;99.90
14473;DHT22;7322;50.872;4.386;2024-01-06T22:42:02;18.30;99.90
14473;DHT22;7322;50.872;4.386;2024-01-06T22:44:39;18.30;99.90
14473;DHT22;7322;50.872;4.386;2024-01-06T22:47:18;18.20;99.90
14473;DHT22;7322;50.872;4.386;2024-01-06T22:50:00;18.20;99.90
14473;DHT22;7322;50.872;4.386;2024-01-06T22:52:43;18.10;99.90
14473;DHT22;7322;50.872;4.386;2024-01-06T22:55:12;18.10;99.90
14473;DHT22;7322;50.872;4.386;2024-01-06T22:57:51;18.00;99.90
14473;DHT22;7322;50.872;4.386;2024-01-06T23:00:20;18.00;99.90
14473;DHT22;7322;50.872;4.386;2024-01-06T23:02:54;17.90;99.90
14473;DHT22;7322;50.872;4.386;2024-01-06T23:05:21;17.80;99.90
14473;DHT22;7322;50.872;4.386;2024-01-06T23:07:49;17.70;99.90
14473;DHT22;7322;50.872;4.386;2024-01-06T23:10:22;17.70;99.90
14473;DHT22;7322;50.872;4.386;2024-01-06T23:12:50;17.70;99.90
14473;DHT22;7322;50.872;4.386;2024-01-06T23:18:57;17.70;99.90
14473;DHT22;7322;50.872;4.386;2024-01-06T23:21:34;17.60;99.90
14473;DHT22;7322;50.872;4.386;2024-01-06T23:24:16;17.50;99.90
14473;DHT22;7322;50.872;4.386;2024-01-06T23:26:46;17.50;99.90
14473;DHT22;7322;50.872;4.386;2024-01-06T23:29:22;17.40;99.90
14473;DHT22;7322;50.872;4.386;2024-01-06T23:32:18;17.40;99.90
14473;DHT22;7322;50.872;4.386;2024-01-06T23:34:57;17.40;99.90
14473;DHT22;7322;50.872;4.386;2024-01-06T23:37:43;17.30;99.90
14473;DHT22;7322;50.872;4.386;2024-01-06T23:40:14;17.30;99.90
14473;DHT22;7322;50.872;4.386;2024-01-06T23:42:44;17.30;99.90
14473;DHT22;7322;50.872;4.386;2024-01-06T23:45:16;17.30;99.90
14473;DHT22;7322;50.872;4.386;2024-01-06T23:47:43;17.20;99.90
14473;DHT22;7322;50.872;4.386;2024-01-06T23:50:31;17.20;99.90
14473;DHT22;7322;50.872;4.386;2024-01-06T23:53:15;17.10;99.90
14473;DHT22;7322;50.872;4.386;2024-01-06T23:55:44;17.10;99.90
14473;DHT22;7322;50.872;4.386;2024-01-06T23:58:33;17.00;99.90
